Time;durP1;ratioP1;P1;durP2;ratioP2;P2;SDS_P1;SDS_P2;PMS_P1;PMS_P2;Temp;Humidity;BMP_temperature;BMP_pressure;BME280_temperature;BME280_humidity;BME280_pressure;Samples;Min_cycle;Max_cycle;Signal;HPM_P1;HPM_P2
2022/11/20 00:02:10;;;;;;;;;;;4.30;99.90;;;;;;5097676;28;20364;-71
2022/11/20 00:04:35;;;;;;;;;;;4.30;99.90;;;;;;5097406;28;20330;-71
2022/11/20 00:07:01;;;;;;;;;;;4.40;99.90;;;;;;5097558;28;20395;-71
2022/11/20 00:09:26;;;;;;;;;;;4.30;99.90;;;;;;5097801;28;20376;-71
2022/11/20 00:11:52;;;;;;;;;;;4.30;99.90;;;;;;5097430;28;20372;-71
2022/11/20 00:14:17;;;;;;;;;;;4.30;99.90;;;;;;5097467;28;20385;-71
2022/11/20 00:16:43;;;;;;;;;;;4.30;99.90;;;;;;5097350;28;19912;-71
2022/11/20 00:19:09;;;;;;;;;;;4.30;99.90;;;;;;5078475;28;20392;-71
2022/11/20 00:21:34;;;;;;;;;;;4.30;99.90;;;;;;5076838;28;20460;-71
2022/11/20 00:24:00;;;;;;;;;;;4.30;99.90;;;;;;5076814;28;20007;-71
2022/11/20 00:26:26;;;;;;;;;;;4.30;99.90;;;;;;5059346;28;19956;-71
2022/11/20 00:28:53;;;;;;;;;;;4.30;99.90;;;;;;5077141;28;19916;-71
2022/11/20 00:31:19;;;;;;;;;;;4.30;99.90;;;;;;5076944;28;19912;-71
2022/11/20 00:33:44;;;;;;;;;;;4.30;99.90;;;;;;5076790;28;20256;-71
2022/11/20 00:36:11;;;;;;;;;;;4.40;99.90;;;;;;5076516;28;19915;-71
2022/11/20 00:38:37;;;;;;;;;;;4.40;99.90;;;;;;5076992;28;19916;-71
2022/11/20 00:41:04;;;;;;;;;;;4.40;99.90;;;;;;5076586;28;20287;-71
2022/11/20 00:43:29;;;;;;;;;;;4.40;99.90;;;;;;5076531;28;20325;-71
2022/11/20 00:46:03;;;;;;;;;;;4.30;99.90;;;;;;5076815;28;19961;-71
2022/11/20 00:48:28;;;;;;;;;;;4.40;99.90;;;;;;5071544;28;19995;-71
2022/11/20 00:50:54;;;;;;;;;;;4.40;99.90;;;;;;5096468;28;20437;-71
2022/11/20 00:53:20;;;;;;;;;;;4.30;99.90;;;;;;5096737;28;20284;-71
2022/11/20 00:55:52;;;;;;;;;;;4.40;99.90;;;;;;5096928;28;20360;-71
2022/11/20 00:58:18;;;;;;;;;;;4.40;99.90;;;;;;5096628;28;20359;-71
2022/11/20 01:00:43;;;;;;;;;;;4.40;99.90;;;;;;5078247;28;19912;-71
2022/11/20 01:03:09;;;;;;;;;;;4.40;99.90;;;;;;5096359;28;19995;-71
2022/11/20 01:05:35;;;;;;;;;;;4.40;99.90;;;;;;5095399;28;19954;-71
2022/11/20 01:08:01;;;;;;;;;;;4.30;99.90;;;;;;5096666;28;19916;-71
2022/11/20 01:10:26;;;;;;;;;;;4.30;99.90;;;;;;5096830;28;20336;-71
2022/11/20 01:13:36;;;;;;;;;;;4.30;99.90;;;;;;5096350;28;20269;-71
2022/11/20 01:15:37;;;;;;;;;;;4.30;99.90;;;;;;5096088;28;20364;-71
2022/11/20 01:18:03;;;;;;;;;;;4.30;99.90;;;;;;5096176;28;19915;-71
2022/11/20 01:20:28;;;;;;;;;;;4.30;99.90;;;;;;5077760;28;19913;-71
2022/11/20 01:22:54;;;;;;;;;;;4.30;99.90;;;;;;5095905;28;19922;-72
2022/11/20 01:25:19;;;;;;;;;;;4.30;99.90;;;;;;5096133;28;19927;-71
2022/11/20 01:27:45;;;;;;;;;;;4.30;99.90;;;;;;5095967;28;19912;-71
2022/11/20 01:30:11;;;;;;;;;;;4.20;99.90;;;;;;5095885;28;19912;-71
2022/11/20 01:32:36;;;;;;;;;;;4.20;99.90;;;;;;5095664;28;20297;-71
2022/11/20 01:35:02;;;;;;;;;;;4.10;99.90;;;;;;5096245;28;20322;-71
2022/11/20 01:37:27;;;;;;;;;;;4.10;99.90;;;;;;5095915;28;19908;-71
2022/11/20 01:39:53;;;;;;;;;;;4.10;99.90;;;;;;5095812;28;19912;-71
2022/11/20 01:45:22;;;;;;;;;;;4.10;99.90;;;;;;5096382;28;19961;-71
2022/11/20 01:47:49;;;;;;;;;;;4.20;99.90;;;;;;5095818;28;20366;-71
2022/11/20 01:50:18;;;;;;;;;;;4.10;99.90;;;;;;5095614;28;19912;-71
2022/11/20 01:52:56;;;;;;;;;;;4.20;99.90;;;;;;5095513;28;19962;-71
2022/11/20 01:55:23;;;;;;;;;;;4.20;99.90;;;;;;5095905;28;20240;-71
2022/11/20 01:57:49;;;;;;;;;;;4.20;99.90;;;;;;5095720;28;19943;-71
2022/11/20 02:00:17;;;;;;;;;;;4.20;99.90;;;;;;5077416;28;20280;-71
2022/11/20 02:02:46;;;;;;;;;;;4.20;99.90;;;;;;5077010;28;20283;-71
2022/11/20 02:05:19;;;;;;;;;;;4.20;99.90;;;;;;5095700;28;19920;-71
2022/11/20 02:07:46;;;;;;;;;;;4.20;99.90;;;;;;5095323;28;19936;-71
2022/11/20 02:10:11;;;;;;;;;;;4.10;99.90;;;;;;5095218;28;19972;-71
2022/11/20 02:15:21;;;;;;;;;;;4.10;99.90;;;;;;5094819;28;19916;-71
2022/11/20 02:17:47;;;;;;;;;;;4.10;99.90;;;;;;5095378;28;19916;-71
2022/11/20 02:20:13;;;;;;;;;;;4.10;99.90;;;;;;5095619;28;19912;-71
2022/11/20 02:22:46;;;;;;;;;;;4.10;99.90;;;;;;5095186;28;19928;-71
2022/11/20 02:25:12;;;;;;;;;;;4.10;99.90;;;;;;5076637;28;20460;-71
2022/11/20 02:27:38;;;;;;;;;;;4.10;99.90;;;;;;5095453;28;19916;-71
2022/11/20 02:30:07;;;;;;;;;;;4.10;99.90;;;;;;5094891;28;19919;-71
2022/11/20 02:32:34;;;;;;;;;;;4.10;99.90;;;;;;5094747;28;19908;-71
2022/11/20 02:35:23;;;;;;;;;;;4.10;99.90;;;;;;5095145;28;20261;-71
2022/11/20 02:37:50;;;;;;;;;;;4.20;99.90;;;;;;5083820;28;19908;-71
2022/11/20 02:40:16;;;;;;;;;;;4.20;99.90;;;;;;5094697;28;19955;-71
2022/11/20 02:42:42;;;;;;;;;;;4.20;99.90;;;;;;5094550;28;20004;-71
2022/11/20 02:45:07;;;;;;;;;;;4.20;99.90;;;;;;5095195;28;20420;-71
2022/11/20 02:47:33;;;;;;;;;;;4.20;99.90;;;;;;5094369;28;20360;-71
2022/11/20 02:49:59;;;;;;;;;;;4.20;99.90;;;;;;5076334;28;19975;-71
2022/11/20 02:52:25;;;;;;;;;;;4.20;99.90;;;;;;5094407;28;20287;-71
2022/11/20 02:54:50;;;;;;;;;;;4.20;99.90;;;;;;5094435;28;19954;-71
2022/11/20 02:57:16;;;;;;;;;;;4.20;99.90;;;;;;5094683;28;19999;-71
2022/11/20 02:59:41;;;;;;;;;;;4.30;99.90;;;;;;5094345;28;19973;-71
2022/11/20 03:02:07;;;;;;;;;;;4.20;99.90;;;;;;5094264;28;19959;-71
2022/11/20 03:04:32;;;;;;;;;;;4.20;99.90;;;;;;5094531;28;19912;-71
2022/11/20 03:06:58;;;;;;;;;;;4.10;99.90;;;;;;5094178;28;19908;-71
2022/11/20 03:09:23;;;;;;;;;;;4.10;99.90;;;;;;5076167;28;19912;-71
2022/11/20 03:11:49;;;;;;;;;;;4.10;99.90;;;;;;5094365;28;20073;-71
2022/11/20 03:14:15;;;;;;;;;;;4.10;99.90;;;;;;5094145;28;19940;-71
2022/11/20 03:16:40;;;;;;;;;;;4.10;99.90;;;;;;5094071;28;19918;-71
2022/11/20 03:19:06;;;;;;;;;;;4.10;99.90;;;;;;5094040;28;19908;-71
2022/11/20 03:21:34;;;;;;;;;;;4.10;99.90;;;;;;5093906;28;20010;-71
2022/11/20 03:24:00;;;;;;;;;;;4.10;99.90;;;;;;5093943;28;19977;-71
2022/11/20 03:26:27;;;;;;;;;;;4.10;99.90;;;;;;5058826;28;19917;-71
2022/11/20 03:28:53;;;;;;;;;;;4.10;99.90;;;;;;5075955;28;19934;-71
2022/11/20 03:31:20;;;;;;;;;;;4.10;99.90;;;;;;5093803;28;19921;-71
2022/11/20 03:33:46;;;;;;;;;;;4.20;99.90;;;;;;5094088;28;20333;-71
2022/11/20 03:36:13;;;;;;;;;;;4.20;99.90;;;;;;5094134;28;19908;-71
2022/11/20 03:38:39;;;;;;;;;;;4.20;99.90;;;;;;5093739;28;19915;-71
2022/11/20 03:41:06;;;;;;;;;;;4.20;99.90;;;;;;5093880;28;20229;-71
2022/11/20 03:43:32;;;;;;;;;;;4.20;99.90;;;;;;5093607;28;19912;-71
2022/11/20 03:45:58;;;;;;;;;;;4.20;99.90;;;;;;5093703;28;20379;-71
2022/11/20 03:48:23;;;;;;;;;;;4.20;99.90;;;;;;5093939;28;19912;-71
2022/11/20 03:50:49;;;;;;;;;;;4.20;99.90;;;;;;5093589;28;20066;-71
2022/11/20 03:53:15;;;;;;;;;;;4.20;99.90;;;;;;5093938;28;19919;-71
2022/11/20 03:55:41;;;;;;;;;;;4.20;99.90;;;;;;5093944;28;19915;-71
2022/11/20 03:58:06;;;;;;;;;;;4.20;99.90;;;;;;5093577;28;19908;-71
2022/11/20 04:00:32;;;;;;;;;;;4.20;99.90;;;;;;5093466;28;19934;-71
2022/11/20 04:02:58;;;;;;;;;;;4.10;99.90;;;;;;5093461;28;19978;-71
2022/11/20 04:05:24;;;;;;;;;;;4.10;99.90;;;;;;5093718;28;19908;-71
2022/11/20 04:07:49;;;;;;;;;;;4.10;99.90;;;;;;5093997;28;19966;-71
2022/11/20 04:10:15;;;;;;;;;;;4.10;99.90;;;;;;5093718;28;19928;-71
2022/11/20 04:12:40;;;;;;;;;;;4.10;99.90;;;;;;5093310;28;19919;-71
2022/11/20 04:15:06;;;;;;;;;;;4.10;99.90;;;;;;5093440;28;19912;-71
2022/11/20 04:17:31;;;;;;;;;;;4.10;99.90;;;;;;5075341;28;19960;-71
2022/11/20 04:19:57;;;;;;;;;;;4.10;99.90;;;;;;5075239;28;20007;-71
2022/11/20 04:22:22;;;;;;;;;;;4.10;99.90;;;;;;5093255;28;19919;-71
2022/11/20 04:24:48;;;;;;;;;;;4.10;99.90;;;;;;5093754;28;19920;-71
2022/11/20 04:27:13;;;;;;;;;;;4.10;99.90;;;;;;5093381;28;19918;-71
2022/11/20 04:29:39;;;;;;;;;;;4.10;99.90;;;;;;5093600;28;20448;-71
2022/11/20 04:32:05;;;;;;;;;;;4.10;99.90;;;;;;5075143;28;19916;-71
2022/11/20 04:34:30;;;;;;;;;;;4.10;99.90;;;;;;5075153;28;20012;-71
2022/11/20 04:36:56;;;;;;;;;;;4.00;99.90;;;;;;5093504;28;19959;-71
2022/11/20 04:39:21;;;;;;;;;;;4.00;99.90;;;;;;5095326;28;19909;-71
2022/11/20 04:41:47;;;;;;;;;;;4.00;99.90;;;;;;5097053;28;19912;-71
2022/11/20 04:44:12;;;;;;;;;;;4.00;99.90;;;;;;5097127;28;19916;-71
2022/11/20 04:46:39;;;;;;;;;;;4.10;99.90;;;;;;5096883;28;20003;-71
2022/11/20 04:49:05;;;;;;;;;;;4.00;99.90;;;;;;5096918;28;19952;-71
2022/11/20 04:51:31;;;;;;;;;;;4.00;99.90;;;;;;5096757;28;19909;-71
2022/11/20 04:53:57;;;;;;;;;;;3.90;99.90;;;;;;5096761;28;19961;-71
2022/11/20 04:56:22;;;;;;;;;;;3.90;99.90;;;;;;5096783;28;19912;-71
2022/11/20 04:58:48;;;;;;;;;;;3.90;99.90;;;;;;5096931;28;19915;-71
2022/11/20 05:01:18;;;;;;;;;;;3.90;99.90;;;;;;5096961;28;19919;-71
2022/11/20 05:03:44;;;;;;;;;;;4.00;99.90;;;;;;5096512;28;19912;-71
2022/11/20 05:06:11;;;;;;;;;;;4.00;99.90;;;;;;5096484;28;20375;-71
2022/11/20 05:08:37;;;;;;;;;;;4.10;99.90;;;;;;5096859;28;19908;-71
2022/11/20 05:11:03;;;;;;;;;;;4.10;99.90;;;;;;5096363;28;19915;-71
2022/11/20 05:13:29;;;;;;;;;;;4.10;99.90;;;;;;5096662;28;19911;-71
2022/11/20 05:15:55;;;;;;;;;;;4.10;99.90;;;;;;5096331;28;19958;-71
2022/11/20 05:18:20;;;;;;;;;;;4.10;99.90;;;;;;5078072;28;19998;-71
2022/11/20 05:20:46;;;;;;;;;;;4.10;99.90;;;;;;5096169;28;19918;-71
2022/11/20 05:23:11;;;;;;;;;;;4.10;99.90;;;;;;5096165;28;19920;-71
2022/11/20 05:25:37;;;;;;;;;;;4.10;99.90;;;;;;5096175;28;19955;-71
2022/11/20 05:28:03;;;;;;;;;;;4.20;99.90;;;;;;5096101;28;20288;-71
2022/11/20 05:30:28;;;;;;;;;;;4.20;99.90;;;;;;5095995;28;20352;-71
2022/11/20 05:32:54;;;;;;;;;;;4.20;99.90;;;;;;5096299;28;19912;-71
2022/11/20 05:35:19;;;;;;;;;;;4.20;99.90;;;;;;5096250;28;19916;-71
2022/11/20 05:37:45;;;;;;;;;;;4.20;99.90;;;;;;5104393;22;19935;-83
2022/11/20 05:40:11;;;;;;;;;;;4.20;99.90;;;;;;5080755;28;19912;-83
2022/11/20 05:42:36;;;;;;;;;;;4.20;99.90;;;;;;5080349;28;19952;-82
2022/11/20 05:45:03;;;;;;;;;;;4.20;99.90;;;;;;5098950;28;19934;-83
2022/11/20 05:47:31;;;;;;;;;;;4.10;99.90;;;;;;5098531;28;19915;-83
2022/11/20 05:49:57;;;;;;;;;;;4.10;99.90;;;;;;5097631;28;19908;-82
2022/11/20 05:52:22;;;;;;;;;;;4.10;99.90;;;;;;5099648;28;20371;-85
2022/11/20 05:54:48;;;;;;;;;;;4.20;99.90;;;;;;5080230;28;19936;-85
2022/11/20 05:57:13;;;;;;;;;;;4.10;99.90;;;;;;5063633;28;19916;-85
2022/11/20 05:59:39;;;;;;;;;;;4.10;99.90;;;;;;5099731;28;19915;-83
2022/11/20 06:02:04;;;;;;;;;;;4.10;99.90;;;;;;5078899;28;19958;-83
2022/11/20 06:04:30;;;;;;;;;;;4.10;99.90;;;;;;5097009;28;19962;-82
2022/11/20 06:06:55;;;;;;;;;;;4.10;99.90;;;;;;5078231;28;19912;-83
2022/11/20 06:09:21;;;;;;;;;;;4.10;99.90;;;;;;5096721;28;20375;-82
2022/11/20 06:11:47;;;;;;;;;;;4.10;99.90;;;;;;5078530;28;20011;-83
2022/11/20 06:14:12;;;;;;;;;;;4.10;99.90;;;;;;5097419;28;20352;-83
2022/11/20 06:16:38;;;;;;;;;;;4.10;99.90;;;;;;5078365;28;20395;-83
2022/11/20 06:19:03;;;;;;;;;;;4.10;99.90;;;;;;5078636;28;20328;-83
2022/11/20 06:21:29;;;;;;;;;;;4.00;99.90;;;;;;5096749;28;20351;-83
2022/11/20 06:23:54;;;;;;;;;;;4.00;99.90;;;;;;5096033;28;19920;-82
2022/11/20 06:26:21;;;;;;;;;;;4.00;99.90;;;;;;5075429;28;19912;-81
2022/11/20 06:28:47;;;;;;;;;;;4.00;99.90;;;;;;5075313;28;19908;-82
2022/11/20 06:31:13;;;;;;;;;;;3.90;99.90;;;;;;5095668;28;19912;-82
2022/11/20 06:33:39;;;;;;;;;;;4.00;99.90;;;;;;5094649;28;19915;-82
2022/11/20 06:36:04;;;;;;;;;;;3.90;99.90;;;;;;5096281;28;19959;-83
2022/11/20 06:38:30;;;;;;;;;;;3.90;99.90;;;;;;5078063;28;19966;-82
2022/11/20 06:40:56;;;;;;;;;;;3.90;99.90;;;;;;5094574;28;19939;-82
2022/11/20 06:43:22;;;;;;;;;;;3.90;99.90;;;;;;5075705;28;19968;-82
2022/11/20 06:45:55;;;;;;;;;;;3.90;99.90;;;;;;5078125;28;19931;-82
2022/11/20 06:48:20;;;;;;;;;;;3.90;99.90;;;;;;5093812;28;19946;-82
2022/11/20 06:50:46;;;;;;;;;;;3.90;99.90;;;;;;5096208;28;19916;-82
2022/11/20 06:53:11;;;;;;;;;;;3.80;99.90;;;;;;5078882;28;19944;-82
2022/11/20 06:55:41;;;;;;;;;;;3.80;99.90;;;;;;5096600;28;19965;-83
2022/11/20 06:58:06;;;;;;;;;;;3.80;99.90;;;;;;5078977;28;19958;-83
2022/11/20 07:00:32;;;;;;;;;;;3.80;99.90;;;;;;5077948;28;19913;-82
2022/11/20 07:02:57;;;;;;;;;;;3.70;99.90;;;;;;5096446;28;19976;-83
2022/11/20 07:05:23;;;;;;;;;;;3.80;99.90;;;;;;5097026;28;19912;-84
2022/11/20 07:07:49;;;;;;;;;;;3.70;99.90;;;;;;5097505;28;19912;-84
2022/11/20 07:10:14;;;;;;;;;;;3.70;99.90;;;;;;5080156;28;20018;-83
2022/11/20 07:12:40;;;;;;;;;;;3.70;99.90;;;;;;5097237;28;19935;-83
2022/11/20 07:15:06;;;;;;;;;;;3.70;99.90;;;;;;5079585;28;20284;-82
2022/11/20 07:17:31;;;;;;;;;;;3.80;99.90;;;;;;5098560;28;19912;-83
2022/11/20 07:19:57;;;;;;;;;;;3.80;99.90;;;;;;5096615;28;19958;-83
2022/11/20 07:22:22;;;;;;;;;;;3.70;99.90;;;;;;5096444;28;19919;-83
2022/11/20 07:24:48;;;;;;;;;;;3.80;99.90;;;;;;5089864;28;19912;-82
2022/11/20 07:27:14;;;;;;;;;;;3.80;99.90;;;;;;5094664;28;20364;-82
2022/11/20 07:29:39;;;;;;;;;;;3.80;99.90;;;;;;5096040;28;20363;-83
2022/11/20 07:32:05;;;;;;;;;;;3.80;99.90;;;;;;5097645;28;19940;-83
2022/11/20 07:34:30;;;;;;;;;;;3.90;99.90;;;;;;5080143;28;19919;-83
2022/11/20 07:36:56;;;;;;;;;;;4.00;99.90;;;;;;5078500;28;19916;-80
2022/11/20 07:39:21;;;;;;;;;;;4.00;99.90;;;;;;5061820;28;19912;-82
2022/11/20 07:41:47;;;;;;;;;;;4.00;99.90;;;;;;5078947;28;20372;-83
2022/11/20 07:44:12;;;;;;;;;;;4.00;99.90;;;;;;5097288;28;20299;-83
2022/11/20 07:46:38;;;;;;;;;;;4.00;99.90;;;;;;5097032;28;20264;-83
2022/11/20 07:49:03;;;;;;;;;;;4.10;99.90;;;;;;5059674;28;19976;-82
2022/11/20 07:51:29;;;;;;;;;;;4.10;99.90;;;;;;5094867;28;19920;-82
2022/11/20 07:53:54;;;;;;;;;;;4.10;99.90;;;;;;5092465;28;19923;-82
2022/11/20 07:56:20;;;;;;;;;;;4.10;99.90;;;;;;5095280;28;20287;-82
2022/11/20 07:58:45;;;;;;;;;;;4.10;99.90;;;;;;5061177;28;20295;-83
2022/11/20 08:01:11;;;;;;;;;;;4.10;99.90;;;;;;5075427;28;20367;-82
2022/11/20 08:03:39;;;;;;;;;;;4.10;99.90;;;;;;5077580;28;20260;-82
2022/11/20 08:06:05;;;;;;;;;;;4.10;99.90;;;;;;5096203;28;19979;-82
2022/11/20 08:08:31;;;;;;;;;;;4.10;99.90;;;;;;5096319;28;20008;-83
2022/11/20 08:14:11;;;;;;;;;;;4.10;99.90;;;;;;5078806;28;19912;-82
2022/11/20 08:16:27;;;;;;;;;;;4.10;99.90;;;;;;5101459;28;20008;-83
2022/11/20 08:18:53;;;;;;;;;;;4.10;99.90;;;;;;5099568;28;19912;-83
2022/11/20 08:21:19;;;;;;;;;;;4.10;99.90;;;;;;5100036;28;19965;-83
2022/11/20 08:23:44;;;;;;;;;;;4.10;99.90;;;;;;5081807;28;19916;-83
2022/11/20 08:26:10;;;;;;;;;;;4.20;99.90;;;;;;5097895;28;19938;-82
2022/11/20 08:28:35;;;;;;;;;;;4.20;99.90;;;;;;5080088;28;19995;-82
2022/11/20 08:31:02;;;;;;;;;;;4.20;99.90;;;;;;5079623;28;19912;-81
2022/11/20 08:33:27;;;;;;;;;;;4.30;99.90;;;;;;5094581;28;19915;-82
2022/11/20 08:35:53;;;;;;;;;;;4.30;99.90;;;;;;5079180;28;20094;-83
2022/11/20 08:38:18;;;;;;;;;;;4.30;99.90;;;;;;5075713;28;19920;-82
2022/11/20 08:41:23;;;;;;;;;;;4.30;99.90;;;;;;5079157;28;19913;-83
2022/11/20 08:43:29;;;;;;;;;;;4.30;99.90;;;;;;5096966;28;19923;-84
2022/11/20 08:45:56;;;;;;;;;;;4.30;99.90;;;;;;5096195;28;20371;-83
2022/11/20 08:48:21;;;;;;;;;;;4.40;99.90;;;;;;5095518;28;19912;-82
2022/11/20 08:50:47;;;;;;;;;;;4.40;99.90;;;;;;5097756;28;20007;-83
2022/11/20 08:53:12;;;;;;;;;;;4.30;99.90;;;;;;5097278;28;19960;-83
2022/11/20 08:55:39;;;;;;;;;;;4.40;99.90;;;;;;5078855;28;19916;-83
2022/11/20 08:58:05;;;;;;;;;;;4.40;99.90;;;;;;5097494;28;19958;-83
2022/11/20 09:00:32;;;;;;;;;;;4.40;99.90;;;;;;5096886;28;20310;-83
2022/11/20 09:02:58;;;;;;;;;;;4.40;99.90;;;;;;5077870;28;19912;-83
2022/11/20 09:05:24;;;;;;;;;;;4.40;99.90;;;;;;5096954;28;20014;-83
2022/11/20 09:07:49;;;;;;;;;;;4.40;99.90;;;;;;5078686;28;19940;-82
2022/11/20 09:10:15;;;;;;;;;;;4.40;99.90;;;;;;5096627;28;19991;-83
2022/11/20 09:12:40;;;;;;;;;;;4.50;99.90;;;;;;5096891;28;19956;-83
2022/11/20 09:15:06;;;;;;;;;;;4.50;99.90;;;;;;5082927;28;19920;-83
2022/11/20 09:17:32;;;;;;;;;;;4.50;99.90;;;;;;5079765;28;19963;-83
2022/11/20 09:19:57;;;;;;;;;;;4.50;99.90;;;;;;5096549;28;19912;-83
2022/11/20 09:22:23;;;;;;;;;;;4.60;99.90;;;;;;5078586;28;19913;-82
2022/11/20 09:24:49;;;;;;;;;;;4.60;99.90;;;;;;5077315;28;20343;-82
2022/11/20 09:27:14;;;;;;;;;;;4.60;99.90;;;;;;5096218;28;20371;-83
2022/11/20 09:29:40;;;;;;;;;;;4.70;99.90;;;;;;5095897;28;20379;-82
2022/11/20 09:32:05;;;;;;;;;;;4.80;99.90;;;;;;5092829;28;20374;-82
2022/11/20 09:34:31;;;;;;;;;;;4.80;99.90;;;;;;5094541;28;19916;-83
2022/11/20 09:36:57;;;;;;;;;;;4.80;99.90;;;;;;5099815;28;20290;-83
2022/11/20 09:39:22;;;;;;;;;;;4.80;99.90;;;;;;5096925;28;19912;-83
2022/11/20 09:41:49;;;;;;;;;;;4.80;99.90;;;;;;5079620;28;20372;-83
2022/11/20 09:44:18;;;;;;;;;;;4.80;99.90;;;;;;5079185;28;19912;-83
2022/11/20 09:46:46;;;;;;;;;;;4.80;99.90;;;;;;5096626;28;20348;-83
2022/11/20 09:49:17;;;;;;;;;;;4.80;99.90;;;;;;5096775;28;19918;-83
2022/11/20 09:51:53;;;;;;;;;;;4.80;99.90;;;;;;5095853;28;19915;-82
2022/11/20 09:54:20;;;;;;;;;;;4.80;99.90;;;;;;5076827;28;20390;-83
2022/11/20 09:56:58;;;;;;;;;;;4.90;99.90;;;;;;5075749;28;20300;-81
2022/11/20 09:59:24;;;;;;;;;;;4.90;99.90;;;;;;5095788;28;19915;-82
2022/11/20 10:01:49;;;;;;;;;;;4.90;99.90;;;;;;5077560;28;19908;-83
2022/11/20 10:04:15;;;;;;;;;;;4.90;99.90;;;;;;5077754;28;20374;-83
2022/11/20 10:06:46;;;;;;;;;;;5.00;99.90;;;;;;5095470;28;20287;-82
2022/11/20 10:09:16;;;;;;;;;;;5.00;99.90;;;;;;5077234;28;19908;-83
2022/11/20 10:11:42;;;;;;;;;;;5.10;99.90;;;;;;5095460;28;19908;-83
2022/11/20 10:14:23;;;;;;;;;;;5.10;99.90;;;;;;5095541;28;19908;-82
2022/11/20 10:17:07;;;;;;;;;;;5.20;99.90;;;;;;5077031;28;20461;-82
2022/11/20 10:19:44;;;;;;;;;;;5.20;99.90;;;;;;5087240;28;19914;-83
2022/11/20 10:22:17;;;;;;;;;;;5.20;99.90;;;;;;5077378;28;19963;-84
2022/11/20 10:24:48;;;;;;;;;;;5.20;99.90;;;;;;5094827;28;20019;-83
2022/11/20 10:27:37;;;;;;;;;;;5.20;99.90;;;;;;5096122;28;20354;-84
2022/11/20 10:30:02;;;;;;;;;;;5.20;99.90;;;;;;5095450;28;19908;-83
2022/11/20 10:32:33;;;;;;;;;;;5.20;99.90;;;;;;5095874;28;19908;-83
2022/11/20 10:35:09;;;;;;;;;;;5.30;99.90;;;;;;5095476;28;19992;-82
2022/11/20 10:37:37;;;;;;;;;;;5.30;99.90;;;;;;5095120;28;19920;-81
2022/11/20 10:40:29;;;;;;;;;;;5.40;99.90;;;;;;5076576;28;19908;-82
2022/11/20 10:43:02;;;;;;;;;;;5.40;99.90;;;;;;5063732;28;20070;-83
2022/11/20 10:45:36;;;;;;;;;;;5.50;99.90;;;;;;5094794;28;19915;-82
2022/11/20 10:48:21;;;;;;;;;;;5.50;99.90;;;;;;5095428;28;20341;-83
2022/11/20 10:50:54;;;;;;;;;;;5.60;99.90;;;;;;5095160;28;19908;-83
2022/11/20 10:53:38;;;;;;;;;;;5.70;99.90;;;;;;5094735;28;19911;-82
2022/11/20 10:56:16;;;;;;;;;;;5.70;99.90;;;;;;5095096;28;19915;-83
2022/11/20 10:59:01;;;;;;;;;;;5.80;99.90;;;;;;5094953;28;19970;-83
2022/11/20 11:01:27;;;;;;;;;;;5.80;99.90;;;;;;5093881;28;20386;-82
2022/11/20 11:03:53;;;;;;;;;;;5.90;99.90;;;;;;5088624;28;20015;-83
2022/11/20 11:06:24;;;;;;;;;;;5.90;99.90;;;;;;5095219;28;19920;-83
2022/11/20 11:08:51;;;;;;;;;;;6.00;99.90;;;;;;5091368;28;19995;-82
2022/11/20 11:11:24;;;;;;;;;;;6.00;99.90;;;;;;5080844;28;20019;-83
2022/11/20 11:13:50;;;;;;;;;;;6.10;99.90;;;;;;5075963;28;19999;-82
2022/11/20 11:16:22;;;;;;;;;;;6.10;99.90;;;;;;5082818;28;20307;-82
2022/11/20 11:18:48;;;;;;;;;;;6.20;99.90;;;;;;5090025;28;20372;-82
2022/11/20 11:21:20;;;;;;;;;;;6.30;99.90;;;;;;5091428;28;19943;-81
2022/11/20 11:23:46;;;;;;;;;;;6.50;99.90;;;;;;5087750;28;19922;-82
2022/11/20 11:26:22;;;;;;;;;;;6.50;99.90;;;;;;5094079;28;19912;-82
2022/11/20 11:28:54;;;;;;;;;;;6.60;99.90;;;;;;5081649;28;19917;-81
2022/11/20 11:31:23;;;;;;;;;;;6.70;99.90;;;;;;5080788;28;20015;-82
2022/11/20 11:33:49;;;;;;;;;;;6.90;99.90;;;;;;5086691;28;19947;-81
2022/11/20 11:36:19;;;;;;;;;;;6.90;99.90;;;;;;5089529;28;19913;-81
2022/11/20 11:38:45;;;;;;;;;;;6.90;99.90;;;;;;5071202;28;19978;-82
2022/11/20 11:41:31;;;;;;;;;;;6.90;99.90;;;;;;5092730;28;19944;-81
2022/11/20 11:47:02;;;;;;;;;;;7.00;99.90;;;;;;5089704;28;20267;-81
2022/11/20 11:49:27;;;;;;;;;;;7.10;99.90;;;;;;5089896;28;20380;-82
2022/11/20 11:51:59;;;;;;;;;;;7.20;99.90;;;;;;5086374;22;20014;-71
2022/11/20 11:54:36;;;;;;;;;;;7.20;99.90;;;;;;5053137;28;19916;-70
2022/11/20 11:57:05;;;;;;;;;;;7.30;99.90;;;;;;5053584;28;20379;-71
2022/11/20 11:59:43;;;;;;;;;;;7.30;99.90;;;;;;5053697;28;19909;-71
2022/11/20 12:02:22;;;;;;;;;;;7.40;99.90;;;;;;5053886;28;19909;-71
2022/11/20 12:04:52;;;;;;;;;;;7.40;99.90;;;;;;5053631;28;19939;-70
2022/11/20 12:07:39;;;;;;;;;;;7.50;99.90;;;;;;5052997;28;19909;-70
2022/11/20 12:10:08;;;;;;;;;;;7.60;99.90;;;;;;5012811;28;19912;-71
2022/11/20 12:12:37;;;;;;;;;;;7.70;99.90;;;;;;5053519;28;19908;-71
2022/11/20 12:15:03;;;;;;;;;;;7.80;99.90;;;;;;5053521;28;19909;-70
2022/11/20 12:17:29;;;;;;;;;;;7.90;99.90;;;;;;5053157;28;19971;-70
2022/11/20 12:19:55;;;;;;;;;;;7.90;99.90;;;;;;5053801;28;19913;-70
2022/11/20 12:22:39;;;;;;;;;;;7.90;99.90;;;;;;5053151;28;19955;-70
2022/11/20 12:25:14;;;;;;;;;;;7.90;99.90;;;;;;5053460;28;19916;-70
2022/11/20 12:28:03;;;;;;;;;;;7.90;99.90;;;;;;5053309;28;19944;-70
2022/11/20 12:30:32;;;;;;;;;;;8.00;99.90;;;;;;5041332;28;20269;-70
2022/11/20 12:32:57;;;;;;;;;;;8.00;99.90;;;;;;5053064;28;19948;-70
2022/11/20 12:35:35;;;;;;;;;;;8.00;99.90;;;;;;5053047;28;19948;-70
2022/11/20 12:38:09;;;;;;;;;;;8.00;99.90;;;;;;5052827;28;19909;-70
2022/11/20 12:40:53;;;;;;;;;;;8.00;99.90;;;;;;5053536;28;19909;-71
2022/11/20 12:46:26;;;;;;;;;;;7.90;99.90;;;;;;5052902;28;19915;-70
2022/11/20 12:48:57;;;;;;;;;;;7.80;99.90;;;;;;5043156;28;19916;-70
2022/11/20 12:51:43;;;;;;;;;;;7.80;99.90;;;;;;5052762;28;20003;-71
2022/11/20 12:54:20;;;;;;;;;;;7.70;99.90;;;;;;5052778;28;20319;-70
2022/11/20 12:57:12;;;;;;;;;;;7.60;99.90;;;;;;5053145;28;20268;-70
2022/11/20 12:59:46;;;;;;;;;;;7.60;99.90;;;;;;5023022;28;19915;-70
2022/11/20 13:02:15;;;;;;;;;;;7.50;99.90;;;;;;5056888;28;19959;-70
2022/11/20 13:05:19;;;;;;;;;;;7.50;99.90;;;;;;5056372;28;19913;-69
2022/11/20 13:07:45;;;;;;;;;;;7.50;99.90;;;;;;4960020;28;19911;-70
2022/11/20 13:10:23;;;;;;;;;;;7.40;99.90;;;;;;4976030;28;19977;-70
2022/11/20 13:12:57;;;;;;;;;;;7.40;99.90;;;;;;5020227;28;20362;-70
2022/11/20 13:15:30;;;;;;;;;;;7.40;99.90;;;;;;5056441;28;19920;-70
2022/11/20 13:17:58;;;;;;;;;;;7.40;99.90;;;;;;5056355;28;20095;-70
2022/11/20 13:20:24;;;;;;;;;;;7.30;99.90;;;;;;5056106;28;19909;-70
2022/11/20 13:22:57;;;;;;;;;;;7.30;99.90;;;;;;5056269;28;19921;-70
2022/11/20 13:25:30;;;;;;;;;;;7.30;99.90;;;;;;5056258;28;20333;-70
2022/11/20 13:27:58;;;;;;;;;;;7.20;99.90;;;;;;5055833;28;19909;-70
2022/11/20 13:30:24;;;;;;;;;;;7.20;99.90;;;;;;5055837;28;20023;-70
2022/11/20 13:33:06;;;;;;;;;;;7.10;99.90;;;;;;5055860;28;19966;-70
2022/11/20 13:35:41;;;;;;;;;;;7.10;99.90;;;;;;5056114;28;19916;-70
2022/11/20 13:38:11;;;;;;;;;;;7.00;99.90;;;;;;5055350;28;19909;-70
2022/11/20 13:40:39;;;;;;;;;;;7.00;99.90;;;;;;5056267;28;19931;-70
2022/11/20 13:43:24;;;;;;;;;;;7.00;99.90;;;;;;5056148;28;20356;-70
2022/11/20 13:45:57;;;;;;;;;;;7.00;99.90;;;;;;5055607;28;19919;-71
2022/11/20 13:48:24;;;;;;;;;;;7.00;99.90;;;;;;5054408;28;20008;-70
2022/11/20 13:51:03;;;;;;;;;;;7.00;99.90;;;;;;5055812;28;19912;-70
2022/11/20 13:53:29;;;;;;;;;;;6.90;99.90;;;;;;5055455;28;19999;-70
2022/11/20 13:55:56;;;;;;;;;;;6.90;99.90;;;;;;5054175;28;19944;-70
2022/11/20 13:58:32;;;;;;;;;;;6.70;99.90;;;;;;5055292;28;20319;-70
2022/11/20 14:01:01;;;;;;;;;;;6.70;99.90;;;;;;5055360;28;19987;-70
2022/11/20 14:03:31;;;;;;;;;;;6.60;99.90;;;;;;5055191;28;19913;-70
2022/11/20 14:06:00;;;;;;;;;;;6.50;99.90;;;;;;5055423;28;19916;-70
2022/11/20 14:08:29;;;;;;;;;;;6.50;99.90;;;;;;5054988;28;19916;-70
2022/11/20 14:11:13;;;;;;;;;;;6.50;99.90;;;;;;5055136;28;19909;-70
2022/11/20 14:13:39;;;;;;;;;;;6.50;99.90;;;;;;5055022;28;20306;-70
2022/11/20 14:16:05;;;;;;;;;;;6.40;99.90;;;;;;5054062;28;19958;-70
2022/11/20 14:18:30;;;;;;;;;;;6.40;99.90;;;;;;5054865;28;19909;-71
2022/11/20 14:20:59;;;;;;;;;;;6.40;99.90;;;;;;5054475;28;19920;-71
2022/11/20 14:23:29;;;;;;;;;;;6.40;99.90;;;;;;5054774;28;19939;-70
2022/11/20 14:25:54;;;;;;;;;;;6.40;99.90;;;;;;5054426;28;20027;-71
2022/11/20 14:28:27;;;;;;;;;;;6.40;99.90;;;;;;5053699;28;21337;-70
2022/11/20 14:30:53;;;;;;;;;;;6.40;99.90;;;;;;5054583;28;20431;-71
2022/11/20 14:33:19;;;;;;;;;;;6.40;99.90;;;;;;5054233;28;19917;-70
2022/11/20 14:35:53;;;;;;;;;;;6.40;99.90;;;;;;5054556;28;19952;-70
2022/11/20 14:38:21;;;;;;;;;;;6.40;99.90;;;;;;5054443;28;19909;-71
2022/11/20 14:40:47;;;;;;;;;;;6.40;99.90;;;;;;5055041;28;19909;-70
2022/11/20 14:43:26;;;;;;;;;;;6.40;99.90;;;;;;5054892;28;19920;-70
2022/11/20 14:45:55;;;;;;;;;;;6.40;99.90;;;;;;5055259;28;19916;-69
2022/11/20 14:48:24;;;;;;;;;;;6.30;99.90;;;;;;5054318;28;20004;-70
2022/11/20 14:50:49;;;;;;;;;;;6.30;99.90;;;;;;5053307;28;19970;-70
2022/11/20 14:53:21;;;;;;;;;;;6.30;99.90;;;;;;5054391;28;20015;-69